Terminal Aerodrome Forecast
Issued by NWS

Home | Current Version | Previous Version | Text Only | Print | Product List | Glossary On
Versions: 1 2 3 4 5 6 7 8 9 10 11 12 13 14 15 16 17 18
000
FTUS43 KFGF 302027 AAA
TAFDVL
TAF AMD
KDVL 302027Z 3020/3118 19006KT P6SM BKN080
      TEMPO 3020/3022 19025G35KT 5SM -TSRA BKN050CB
     FM310000 09007KT P6SM -TSRA OVC050CB
     FM310900 14013G17KT P6SM VCSH BKN014
     FM311200 20012KT P6SM VCSH BKN008
     FM311500 22013G18KT P6SM BKN025=

USA.gov is the U.S. government's official web portal to all federal, state and local government web resources and services.